sensor_id;sensor_type;location;lat;lon;timestamp;pressure;altitude;pressure_sealevel;temperature;humidity
75072;BME280;63651;55.728;38.022;2022-12-18T00:02:07;98912.16;;;13.95;32.24
75072;BME280;63651;55.728;38.022;2022-12-18T00:07:08;98908.25;;;13.91;32.12
75072;BME280;63651;55.728;38.022;2022-12-18T00:12:09;98904.22;;;13.94;32.24
75072;BME280;63651;55.728;38.022;2022-12-18T00:17:11;98895.69;;;13.90;32.41
75072;BME280;63651;55.728;38.022;2022-12-18T00:22:12;98882.59;;;13.92;32.57
75072;BME280;63651;55.728;38.022;2022-12-18T00:27:13;98871.94;;;13.91;32.71
75072;BME280;63651;55.728;38.022;2022-12-18T00:32:14;98867.53;;;13.90;32.38
75072;BME280;63651;55.728;38.022;2022-12-18T00:37:15;98856.03;;;13.88;32.59
75072;BME280;63651;55.728;38.022;2022-12-18T00:42:16;98847.03;;;13.87;32.46
75072;BME280;63651;55.728;38.022;2022-12-18T00:47:35;98844.44;;;13.81;32.26
75072;BME280;63651;55.728;38.022;2022-12-18T00:52:36;98828.16;;;13.86;31.74
75072;BME280;63651;55.728;38.022;2022-12-18T00:57:38;98817.47;;;13.84;31.88
75072;BME280;63651;55.728;38.022;2022-12-18T01:02:39;98800.41;;;13.77;31.37
75072;BME280;63651;55.728;38.022;2022-12-18T01:07:41;98786.69;;;13.72;31.71
75072;BME280;63651;55.728;38.022;2022-12-18T01:12:42;98785.03;;;13.71;31.82
75072;BME280;63651;55.728;38.022;2022-12-18T01:17:43;98763.59;;;13.63;31.51
75072;BME280;63651;55.728;38.022;2022-12-18T01:22:44;98759.19;;;13.62;31.78
75072;BME280;63651;55.728;38.022;2022-12-18T01:27:45;98753.97;;;13.60;31.91
75072;BME280;63651;55.728;38.022;2022-12-18T01:32:46;98766.66;;;13.66;31.59
75072;BME280;63651;55.728;38.022;2022-12-18T01:37:47;98748.63;;;13.65;31.89
75072;BME280;63651;55.728;38.022;2022-12-18T01:42:52;98754.09;;;13.65;32.24
75072;BME280;63651;55.728;38.022;2022-12-18T01:48:00;98750.53;;;13.65;32.11
75072;BME280;63651;55.728;38.022;2022-12-18T01:53:12;98749.09;;;13.62;31.83
75072;BME280;63651;55.728;38.022;2022-12-18T01:58:15;98749.75;;;13.53;31.29
75072;BME280;63651;55.728;38.022;2022-12-18T02:03:16;98733.03;;;13.49;31.06
75072;BME280;63651;55.728;38.022;2022-12-18T02:08:39;98724.66;;;13.39;32.30
75072;BME280;63651;55.728;38.022;2022-12-18T02:14:00;98737.75;;;13.54;32.69
75072;BME280;63651;55.728;38.022;2022-12-18T02:29:51;98734.66;;;13.33;31.63
75072;BME280;63651;55.728;38.022;2022-12-18T02:34:56;98694.28;;;13.19;31.64
75072;BME280;63651;55.728;38.022;2022-12-18T02:39:59;98694.22;;;13.30;31.83
75072;BME280;63651;55.728;38.022;2022-12-18T02:45:00;98713.31;;;13.30;31.38
75072;BME280;63651;55.728;38.022;2022-12-18T02:50:29;98723.75;;;13.33;31.35
75072;BME280;63651;55.728;38.022;2022-12-18T03:06:21;98734.66;;;13.33;31.54
75072;BME280;63651;55.728;38.022;2022-12-18T03:11:25;98727.88;;;13.36;31.32
75072;BME280;63651;55.728;38.022;2022-12-18T03:16:49;98714.16;;;13.31;30.53
75072;BME280;63651;55.728;38.022;2022-12-18T03:21:56;98685.97;;;13.13;31.08
75072;BME280;63651;55.728;38.022;2022-12-18T03:27:01;98686.38;;;12.94;30.38
75072;BME280;63651;55.728;38.022;2022-12-18T03:32:11;98734.78;;;12.05;30.71
75072;BME280;63651;55.728;38.022;2022-12-18T03:37:13;98742.59;;;11.71;30.76
75072;BME280;63651;55.728;38.022;2022-12-18T03:42:25;98719.91;;;11.47;30.50
75072;BME280;63651;55.728;38.022;2022-12-18T03:47:40;98734.16;;;11.31;30.34
75072;BME280;63651;55.728;38.022;2022-12-18T03:52:57;98714.53;;;10.81;31.37
75072;BME280;63651;55.728;38.022;2022-12-18T03:58:02;98708.75;;;10.59;31.29
75072;BME280;63651;55.728;38.022;2022-12-18T04:03:04;98713.56;;;10.57;30.95
75072;BME280;63651;55.728;38.022;2022-12-18T04:08:06;98728.34;;;10.43;31.10
75072;BME280;63651;55.728;38.022;2022-12-18T04:13:08;98716.25;;;10.14;32.04
75072;BME280;63651;55.728;38.022;2022-12-18T04:18:09;98738.78;;;10.14;31.00
75072;BME280;63651;55.728;38.022;2022-12-18T04:23:11;98732.75;;;10.12;31.20
75072;BME280;63651;55.728;38.022;2022-12-18T04:28:12;98730.88;;;9.88;32.28
75072;BME280;63651;55.728;38.022;2022-12-18T04:33:13;98764.81;;;9.97;32.29
75072;BME280;63651;55.728;38.022;2022-12-18T04:38:14;98774.06;;;9.89;31.96
75072;BME280;63651;55.728;38.022;2022-12-18T04:43:16;98777.66;;;9.83;31.71
75072;BME280;63651;55.728;38.022;2022-12-18T04:48:17;98771.03;;;9.73;31.38
75072;BME280;63651;55.728;38.022;2022-12-18T04:53:18;98802.84;;;9.59;31.73
75072;BME280;63651;55.728;38.022;2022-12-18T04:58:19;98819.72;;;9.61;31.62
75072;BME280;63651;55.728;38.022;2022-12-18T05:03:20;98833.31;;;9.54;32.35
75072;BME280;63651;55.728;38.022;2022-12-18T05:08:21;98844.47;;;9.33;31.97
75072;BME280;63651;55.728;38.022;2022-12-18T05:13:22;98867.16;;;9.39;32.30
75072;BME280;63651;55.728;38.022;2022-12-18T05:18:24;98856.53;;;9.37;32.17
75072;BME280;63651;55.728;38.022;2022-12-18T05:23:25;98852.41;;;9.28;31.82
75072;BME280;63651;55.728;38.022;2022-12-18T05:28:27;98869.72;;;9.20;32.89
75072;BME280;63651;55.728;38.022;2022-12-18T05:33:31;98836.41;;;9.00;32.40
75072;BME280;63651;55.728;38.022;2022-12-18T05:38:36;98864.75;;;8.97;32.73
75072;BME280;63651;55.728;38.022;2022-12-18T05:43:39;98859.34;;;9.04;32.24
75072;BME280;63651;55.728;38.022;2022-12-18T05:48:40;98884.75;;;9.10;32.51
75072;BME280;63651;55.728;38.022;2022-12-18T05:53:42;98891.00;;;9.04;32.68
75072;BME280;63651;55.728;38.022;2022-12-18T05:58:43;98895.56;;;9.10;32.68
75072;BME280;63651;55.728;38.022;2022-12-18T06:03:45;98910.81;;;9.04;32.52
75072;BME280;63651;55.728;38.022;2022-12-18T06:08:46;98908.09;;;8.97;32.52
75072;BME280;63651;55.728;38.022;2022-12-18T06:13:52;98917.72;;;8.80;32.62
75072;BME280;63651;55.728;38.022;2022-12-18T06:18:58;98922.31;;;8.53;32.38
75072;BME280;63651;55.728;38.022;2022-12-18T06:24:00;98931.03;;;8.49;32.12
75072;BME280;63651;55.728;38.022;2022-12-18T06:29:01;98941.66;;;8.70;32.80
75072;BME280;63651;55.728;38.022;2022-12-18T06:34:04;98952.50;;;8.57;33.07
75072;BME280;63651;55.728;38.022;2022-12-18T06:39:05;98945.41;;;8.62;32.50
75072;BME280;63651;55.728;38.022;2022-12-18T06:44:06;98934.59;;;8.49;32.74
75072;BME280;63651;55.728;38.022;2022-12-18T06:49:07;98953.75;;;8.54;32.25
75072;BME280;63651;55.728;38.022;2022-12-18T06:54:09;98977.50;;;8.72;32.44
75072;BME280;63651;55.728;38.022;2022-12-18T06:59:11;98994.09;;;8.36;32.54
75072;BME280;63651;55.728;38.022;2022-12-18T07:04:13;99008.50;;;8.63;32.59
75072;BME280;63651;55.728;38.022;2022-12-18T07:09:14;99010.41;;;8.69;33.11
75072;BME280;63651;55.728;38.022;2022-12-18T07:14:15;99018.94;;;8.66;32.69
75072;BME280;63651;55.728;38.022;2022-12-18T07:19:16;99022.25;;;8.68;32.13
75072;BME280;63651;55.728;38.022;2022-12-18T07:24:17;99022.88;;;8.70;32.00
75072;BME280;63651;55.728;38.022;2022-12-18T07:29:18;99036.22;;;8.72;32.24
75072;BME280;63651;55.728;38.022;2022-12-18T07:34:19;99035.41;;;8.78;31.80
75072;BME280;63651;55.728;38.022;2022-12-18T07:39:20;99055.78;;;8.67;31.77
75072;BME280;63651;55.728;38.022;2022-12-18T07:44:21;99069.97;;;8.76;31.84
75072;BME280;63651;55.728;38.022;2022-12-18T07:49:22;99078.72;;;8.78;32.18
75072;BME280;63651;55.728;38.022;2022-12-18T07:54:23;99081.63;;;8.76;31.76
75072;BME280;63651;55.728;38.022;2022-12-18T07:59:25;99082.19;;;8.52;31.82
75072;BME280;63651;55.728;38.022;2022-12-18T08:04:26;99075.78;;;8.66;32.37
75072;BME280;63651;55.728;38.022;2022-12-18T08:09:27;99083.88;;;8.59;32.04
75072;BME280;63651;55.728;38.022;2022-12-18T08:14:28;99082.03;;;8.73;32.06
75072;BME280;63651;55.728;38.022;2022-12-18T08:19:29;99090.78;;;8.69;31.84
75072;BME280;63651;55.728;38.022;2022-12-18T08:24:30;99116.34;;;8.53;31.93
75072;BME280;63651;55.728;38.022;2022-12-18T08:29:31;99109.25;;;8.45;33.18
75072;BME280;63651;55.728;38.022;2022-12-18T08:34:32;99141.13;;;8.50;31.26
75072;BME280;63651;55.728;38.022;2022-12-18T08:39:33;99146.47;;;8.37;32.14
75072;BME280;63651;55.728;38.022;2022-12-18T08:44:35;99151.47;;;8.40;31.85
75072;BME280;63651;55.728;38.022;2022-12-18T08:49:39;99172.34;;;8.52;32.11
75072;BME280;63651;55.728;38.022;2022-12-18T08:54:41;99182.94;;;8.47;32.23
75072;BME280;63651;55.728;38.022;2022-12-18T08:59:42;99180.97;;;8.69;32.10
75072;BME280;63651;55.728;38.022;2022-12-18T09:04:43;99194.72;;;8.68;31.86
75072;BME280;63651;55.728;38.022;2022-12-18T09:09:44;99191.47;;;8.92;34.63
75072;BME280;63651;55.728;38.022;2022-12-18T09:14:46;99195.53;;;9.29;37.61
75072;BME280;63651;55.728;38.022;2022-12-18T09:19:47;99199.91;;;9.23;36.94
75072;BME280;63651;55.728;38.022;2022-12-18T09:24:48;99197.81;;;9.25;37.13
75072;BME280;63651;55.728;38.022;2022-12-18T09:29:49;99218.84;;;9.17;36.16
75072;BME280;63651;55.728;38.022;2022-12-18T09:34:50;99199.88;;;9.10;36.42
75072;BME280;63651;55.728;38.022;2022-12-18T09:39:51;99221.41;;;9.32;37.66
75072;BME280;63651;55.728;38.022;2022-12-18T09:44:53;99229.13;;;9.41;37.84
75072;BME280;63651;55.728;38.022;2022-12-18T09:50:28;99228.69;;;9.38;38.24
75072;BME280;63651;55.728;38.022;2022-12-18T09:55:34;99227.06;;;9.76;40.30
75072;BME280;63651;55.728;38.022;2022-12-18T10:00:37;99236.47;;;10.07;41.00
75072;BME280;63651;55.728;38.022;2022-12-18T10:11:28;99243.75;;;10.52;41.28
75072;BME280;63651;55.728;38.022;2022-12-18T10:27:16;99247.38;;;12.05;37.64
75072;BME280;63651;55.728;38.022;2022-12-18T10:32:26;99243.28;;;11.58;37.63
75072;BME280;63651;55.728;38.022;2022-12-18T10:37:29;99245.59;;;11.54;38.36
75072;BME280;63651;55.728;38.022;2022-12-18T10:42:30;99259.06;;;11.43;38.04
75072;BME280;63651;55.728;38.022;2022-12-18T10:47:33;99257.19;;;11.43;39.89
75072;BME280;63651;55.728;38.022;2022-12-18T10:52:35;99260.22;;;14.58;39.33
75072;BME280;63651;55.728;38.022;2022-12-18T10:57:39;99267.34;;;14.82;39.49
75072;BME280;63651;55.728;38.022;2022-12-18T11:02:42;99289.75;;;15.19;39.41
75072;BME280;63651;55.728;38.022;2022-12-18T11:07:48;99307.28;;;13.17;38.21
75072;BME280;63651;55.728;38.022;2022-12-18T11:12:51;99328.22;;;12.30;39.22
75072;BME280;63651;55.728;38.022;2022-12-18T11:17:53;99338.56;;;11.90;40.21
75072;BME280;63651;55.728;38.022;2022-12-18T11:22:57;99335.06;;;11.69;40.93
75072;BME280;63651;55.728;38.022;2022-12-18T11:28:25;99333.41;;;11.23;40.93
75072;BME280;63651;55.728;38.022;2022-12-18T11:33:24;99347.66;;;11.12;41.06
75072;BME280;63651;55.728;38.022;2022-12-18T11:38:37;99341.06;;;10.75;40.21
75072;BME280;63651;55.728;38.022;2022-12-18T11:43:59;99345.00;;;10.99;42.16
75072;BME280;63651;55.728;38.022;2022-12-18T11:49:22;99366.34;;;10.82;41.30
75072;BME280;63651;55.728;38.022;2022-12-18T11:54:26;99384.53;;;10.75;42.66
75072;BME280;63651;55.728;38.022;2022-12-18T11:59:49;99384.34;;;10.44;41.90
75072;BME280;63651;55.728;38.022;2022-12-18T12:05:11;99384.56;;;10.42;41.79
75072;BME280;63651;55.728;38.022;2022-12-18T12:26:06;99437.03;;;11.60;45.06
75072;BME280;63651;55.728;38.022;2022-12-18T12:41:33;99446.25;;;11.59;44.87
75072;BME280;63651;55.728;38.022;2022-12-18T12:47:15;99453.56;;;11.59;44.52
75072;BME280;63651;55.728;38.022;2022-12-18T12:52:39;99445.03;;;11.48;43.79
75072;BME280;63651;55.728;38.022;2022-12-18T12:57:45;99485.13;;;11.86;44.71
75072;BME280;63651;55.728;38.022;2022-12-18T13:03:08;99493.41;;;11.00;45.90
75072;BME280;63651;55.728;38.022;2022-12-18T13:08:27;99503.50;;;10.19;46.29
75072;BME280;63651;55.728;38.022;2022-12-18T13:13:51;99507.38;;;9.97;46.64
75072;BME280;63651;55.728;38.022;2022-12-18T13:18:54;99510.66;;;9.44;46.55
75072;BME280;63651;55.728;38.022;2022-12-18T13:24:15;99530.13;;;9.26;47.11
75072;BME280;63651;55.728;38.022;2022-12-18T13:29:45;99535.06;;;8.95;46.68
75072;BME280;63651;55.728;38.022;2022-12-18T13:34:46;99554.94;;;8.81;46.55
75072;BME280;63651;55.728;38.022;2022-12-18T13:39:47;99563.44;;;8.56;47.48
75072;BME280;63651;55.728;38.022;2022-12-18T13:44:48;99571.25;;;8.87;48.46
75072;BME280;63651;55.728;38.022;2022-12-18T13:49:50;99582.91;;;8.66;48.09
75072;BME280;63651;55.728;38.022;2022-12-18T13:54:56;99605.09;;;8.77;49.42
75072;BME280;63651;55.728;38.022;2022-12-18T14:00:14;99610.44;;;8.49;48.70
75072;BME280;63651;55.728;38.022;2022-12-18T14:05:25;99620.22;;;8.50;48.62
75072;BME280;63651;55.728;38.022;2022-12-18T14:10:27;99623.50;;;8.30;48.07
75072;BME280;63651;55.728;38.022;2022-12-18T14:15:36;99642.47;;;7.86;47.76
75072;BME280;63651;55.728;38.022;2022-12-18T14:20:43;99631.91;;;8.06;47.66
75072;BME280;63651;55.728;38.022;2022-12-18T14:25:48;99647.88;;;7.86;48.45
75072;BME280;63651;55.728;38.022;2022-12-18T14:30:49;99672.50;;;7.54;48.64
75072;BME280;63651;55.728;38.022;2022-12-18T14:35:58;99622.63;;;7.42;47.83
75072;BME280;63651;55.728;38.022;2022-12-18T14:41:04;99676.63;;;7.64;48.45
75072;BME280;63651;55.728;38.022;2022-12-18T14:51:27;99686.38;;;7.88;48.55
75072;BME280;63651;55.728;38.022;2022-12-18T14:56:36;99694.41;;;7.82;47.93
75072;BME280;63651;55.728;38.022;2022-12-18T15:01:45;99730.59;;;7.35;48.29
75072;BME280;63651;55.728;38.022;2022-12-18T15:06:47;99735.97;;;7.58;49.01
75072;BME280;63651;55.728;38.022;2022-12-18T15:11:49;99737.84;;;7.34;49.44
75072;BME280;63651;55.728;38.022;2022-12-18T15:16:53;99741.41;;;9.56;51.08
75072;BME280;63651;55.728;38.022;2022-12-18T15:21:58;99755.00;;;7.64;48.17
75072;BME280;63651;55.728;38.022;2022-12-18T15:26:59;99761.88;;;7.29;47.67
75072;BME280;63651;55.728;38.022;2022-12-18T15:32:04;99762.03;;;7.28;46.85
75072;BME280;63651;55.728;38.022;2022-12-18T15:37:07;99756.69;;;7.20;46.27
75072;BME280;63651;55.728;38.022;2022-12-18T15:42:09;99780.66;;;6.92;47.30
75072;BME280;63651;55.728;38.022;2022-12-18T15:47:29;99782.06;;;7.11;46.18
75072;BME280;63651;55.728;38.022;2022-12-18T15:52:39;99781.91;;;7.12;47.90
75072;BME280;63651;55.728;38.022;2022-12-18T15:57:41;99798.31;;;6.63;47.28
75072;BME280;63651;55.728;38.022;2022-12-18T16:02:42;99812.69;;;6.48;47.24
75072;BME280;63651;55.728;38.022;2022-12-18T16:07:44;99830.38;;;6.58;47.26
75072;BME280;63651;55.728;38.022;2022-12-18T16:12:45;99832.16;;;6.82;46.80
75072;BME280;63651;55.728;38.022;2022-12-18T16:17:46;99841.47;;;6.71;47.15
75072;BME280;63651;55.728;38.022;2022-12-18T16:22:48;99861.41;;;6.62;46.91
75072;BME280;63651;55.728;38.022;2022-12-18T16:27:50;99873.41;;;6.27;46.95
75072;BME280;63651;55.728;38.022;2022-12-18T16:32:51;99879.63;;;6.68;46.78
75072;BME280;63651;55.728;38.022;2022-12-18T16:37:53;99894.94;;;6.76;47.90
75072;BME280;63651;55.728;38.022;2022-12-18T16:42:55;99892.94;;;6.70;47.67
75072;BME280;63651;55.728;38.022;2022-12-18T16:47:56;99910.69;;;6.16;46.56
75072;BME280;63651;55.728;38.022;2022-12-18T16:52:58;99919.78;;;6.15;47.26
75072;BME280;63651;55.728;38.022;2022-12-18T16:58:00;99922.13;;;6.18;46.20
75072;BME280;63651;55.728;38.022;2022-12-18T17:03:01;99924.81;;;5.93;46.35
75072;BME280;63651;55.728;38.022;2022-12-18T17:08:02;99925.53;;;7.94;60.16
75072;BME280;63651;55.728;38.022;2022-12-18T17:13:03;99934.97;;;7.98;50.98
75072;BME280;63651;55.728;38.022;2022-12-18T17:18:04;99946.81;;;8.20;50.00
75072;BME280;63651;55.728;38.022;2022-12-18T17:23:05;99960.38;;;8.43;50.26
75072;BME280;63651;55.728;38.022;2022-12-18T17:28:08;99951.91;;;8.60;49.38
75072;BME280;63651;55.728;38.022;2022-12-18T17:33:09;99975.31;;;8.76;49.52
75072;BME280;63651;55.728;38.022;2022-12-18T17:38:10;99963.38;;;8.85;48.91
75072;BME280;63651;55.728;38.022;2022-12-18T17:43:11;99988.81;;;8.99;48.99
75072;BME280;63651;55.728;38.022;2022-12-18T17:48:13;99991.09;;;9.10;51.87
75072;BME280;63651;55.728;38.022;2022-12-18T17:53:14;100004.00;;;9.23;54.04
75072;BME280;63651;55.728;38.022;2022-12-18T17:58:15;100011.66;;;9.34;53.79
75072;BME280;63651;55.728;38.022;2022-12-18T18:03:16;100016.63;;;9.45;54.21
75072;BME280;63651;55.728;38.022;2022-12-18T18:08:17;100018.59;;;9.51;53.94
75072;BME280;63651;55.728;38.022;2022-12-18T18:13:24;100011.03;;;9.47;53.08
75072;BME280;63651;55.728;38.022;2022-12-18T18:18:44;100008.88;;;9.57;51.62
75072;BME280;63651;55.728;38.022;2022-12-18T18:23:45;100043.47;;;9.70;52.61
75072;BME280;63651;55.728;38.022;2022-12-18T18:28:46;100028.69;;;9.57;51.88
75072;BME280;63651;55.728;38.022;2022-12-18T18:33:47;100067.03;;;9.69;51.54
75072;BME280;63651;55.728;38.022;2022-12-18T18:38:50;100048.41;;;9.51;50.77
75072;BME280;63651;55.728;38.022;2022-12-18T18:43:55;100086.59;;;9.65;51.17
75072;BME280;63651;55.728;38.022;2022-12-18T18:48:57;100068.81;;;9.47;50.21
75072;BME280;63651;55.728;38.022;2022-12-18T18:53:58;100067.50;;;9.43;49.01
75072;BME280;63651;55.728;38.022;2022-12-18T18:58:59;100083.38;;;9.46;48.67
75072;BME280;63651;55.728;38.022;2022-12-18T19:04:01;100101.16;;;9.49;48.55
75072;BME280;63651;55.728;38.022;2022-12-18T19:09:03;100128.47;;;9.62;50.08
75072;BME280;63651;55.728;38.022;2022-12-18T19:14:07;100144.84;;;9.69;49.71
75072;BME280;63651;55.728;38.022;2022-12-18T19:19:09;100147.28;;;9.63;49.43
75072;BME280;63651;55.728;38.022;2022-12-18T19:24:10;100149.22;;;9.55;47.61
75072;BME280;63651;55.728;38.022;2022-12-18T19:29:11;100139.00;;;9.42;47.79
75072;BME280;63651;55.728;38.022;2022-12-18T19:34:14;100135.13;;;9.22;47.01
75072;BME280;63651;55.728;38.022;2022-12-18T19:39:17;100182.50;;;9.49;47.23
75072;BME280;63651;55.728;38.022;2022-12-18T19:44:18;100168.72;;;9.36;47.00
75072;BME280;63651;55.728;38.022;2022-12-18T19:49:19;100189.09;;;9.32;47.38
75072;BME280;63651;55.728;38.022;2022-12-18T19:54:20;100207.94;;;9.48;46.47
75072;BME280;63651;55.728;38.022;2022-12-18T19:59:21;100172.78;;;9.17;45.40
75072;BME280;63651;55.728;38.022;2022-12-18T20:04:22;100196.94;;;9.26;45.76
75072;BME280;63651;55.728;38.022;2022-12-18T20:09:23;100225.66;;;9.36;46.86
75072;BME280;63651;55.728;38.022;2022-12-18T20:14:25;100218.25;;;9.29;45.73
75072;BME280;63651;55.728;38.022;2022-12-18T20:19:26;100249.03;;;9.37;45.98
75072;BME280;63651;55.728;38.022;2022-12-18T20:24:27;100233.00;;;9.27;45.31
75072;BME280;63651;55.728;38.022;2022-12-18T20:29:28;100255.59;;;9.42;45.15
75072;BME280;63651;55.728;38.022;2022-12-18T20:34:30;100274.28;;;9.37;45.97
75072;BME280;63651;55.728;38.022;2022-12-18T20:39:31;100243.38;;;9.23;46.33
75072;BME280;63651;55.728;38.022;2022-12-18T20:44:32;100234.44;;;9.15;47.46
75072;BME280;63651;55.728;38.022;2022-12-18T20:49:33;100225.78;;;9.19;46.79
75072;BME280;63651;55.728;38.022;2022-12-18T20:54:34;100263.75;;;9.42;46.52
75072;BME280;63651;55.728;38.022;2022-12-18T20:59:36;100276.75;;;9.47;47.51
75072;BME280;63651;55.728;38.022;2022-12-18T21:04:37;100253.78;;;9.35;46.18
75072;BME280;63651;55.728;38.022;2022-12-18T21:09:38;100243.66;;;9.28;45.43
75072;BME280;63651;55.728;38.022;2022-12-18T21:14:39;100275.91;;;9.46;45.39
75072;BME280;63651;55.728;38.022;2022-12-18T21:19:40;100286.41;;;9.49;45.46
75072;BME280;63651;55.728;38.022;2022-12-18T21:24:41;100286.69;;;9.54;46.19
75072;BME280;63651;55.728;38.022;2022-12-18T21:29:42;100279.81;;;9.44;45.61
75072;BME280;63651;55.728;38.022;2022-12-18T21:34:43;100304.91;;;9.46;46.20
75072;BME280;63651;55.728;38.022;2022-12-18T21:39:45;100305.69;;;9.54;45.79
75072;BME280;63651;55.728;38.022;2022-12-18T21:44:47;100308.88;;;9.58;45.28
75072;BME280;63651;55.728;38.022;2022-12-18T21:49:50;100315.03;;;9.52;43.74
75072;BME280;63651;55.728;38.022;2022-12-18T21:54:52;100315.19;;;9.50;45.10
75072;BME280;63651;55.728;38.022;2022-12-18T21:59:53;100322.13;;;9.53;44.58
75072;BME280;63651;55.728;38.022;2022-12-18T22:04:54;100318.41;;;9.54;45.01
75072;BME280;63651;55.728;38.022;2022-12-18T22:09:55;100326.72;;;9.52;44.88
75072;BME280;63651;55.728;38.022;2022-12-18T22:14:56;100334.00;;;9.52;44.27
75072;BME280;63651;55.728;38.022;2022-12-18T22:19:57;100354.69;;;9.53;43.98
75072;BME280;63651;55.728;38.022;2022-12-18T22:24:58;100354.69;;;9.53;44.04
75072;BME280;63651;55.728;38.022;2022-12-18T22:30:00;100351.66;;;9.48;45.03
75072;BME280;63651;55.728;38.022;2022-12-18T22:35:05;100348.78;;;9.49;43.86
75072;BME280;63651;55.728;38.022;2022-12-18T22:40:08;100350.09;;;9.53;44.79
75072;BME280;63651;55.728;38.022;2022-12-18T22:45:10;100343.81;;;9.53;44.83
75072;BME280;63651;55.728;38.022;2022-12-18T22:50:12;100354.16;;;9.57;45.32
75072;BME280;63651;55.728;38.022;2022-12-18T22:55:13;100361.06;;;9.60;44.14
75072;BME280;63651;55.728;38.022;2022-12-18T23:00:16;100369.88;;;9.62;44.94
75072;BME280;63651;55.728;38.022;2022-12-18T23:05:17;100378.00;;;9.62;44.11
75072;BME280;63651;55.728;38.022;2022-12-18T23:10:18;100381.94;;;9.59;44.28
75072;BME280;63651;55.728;38.022;2022-12-18T23:15:19;100378.56;;;9.57;44.08
75072;BME280;63651;55.728;38.022;2022-12-18T23:20:20;100384.28;;;9.62;43.99
75072;BME280;63651;55.728;38.022;2022-12-18T23:25:21;100378.50;;;9.66;43.40
75072;BME280;63651;55.728;38.022;2022-12-18T23:30:22;100388.69;;;9.63;43.39
75072;BME280;63651;55.728;38.022;2022-12-18T23:35:24;100408.50;;;9.64;42.70
75072;BME280;63651;55.728;38.022;2022-12-18T23:40:25;100410.22;;;9.65;42.68
75072;BME280;63651;55.728;38.022;2022-12-18T23:45:26;100408.34;;;9.66;43.89
75072;BME280;63651;55.728;38.022;2022-12-18T23:50:27;100421.38;;;9.70;42.70
75072;BME280;63651;55.728;38.022;2022-12-18T23:55:29;100423.22;;;9.70;42.86
